createdAt,value
2022-09-04T00:01:50.371Z,17.20
2022-09-04T00:07:02.412Z,17.10
2022-09-04T00:12:09.787Z,17.00
2022-09-04T00:17:19.608Z,16.90
2022-09-04T00:22:30.660Z,16.90
2022-09-04T00:27:44.322Z,16.80
2022-09-04T00:32:55.825Z,16.80
2022-09-04T00:38:05.257Z,16.80
2022-09-04T00:43:38.336Z,16.80
2022-09-04T00:49:11.441Z,16.70
2022-09-04T00:54:39.481Z,16.60
2022-09-04T01:00:06.417Z,16.60
2022-09-04T01:05:18.691Z,16.60
2022-09-04T01:10:36.586Z,16.60
2022-09-04T01:15:46.233Z,16.50
2022-09-04T01:20:59.487Z,16.50
2022-09-04T01:26:10.037Z,16.50
2022-09-04T01:31:25.555Z,16.50
2022-09-04T01:36:38.079Z,16.40
2022-09-04T01:41:47.430Z,16.40
2022-09-04T01:47:03.734Z,16.40
2022-09-04T01:52:37.809Z,16.30
2022-09-04T01:57:55.853Z,16.30
2022-09-04T02:03:08.371Z,16.20
2022-09-04T02:08:27.031Z,16.20
2022-09-04T02:13:45.048Z,16.10
2022-09-04T02:19:00.635Z,16.00
2022-09-04T02:24:11.229Z,16.00
2022-09-04T02:29:25.349Z,15.90
2022-09-04T02:34:38.909Z,16.00
2022-09-04T02:40:00.996Z,15.90
2022-09-04T02:45:17.820Z,15.90
2022-09-04T02:50:33.835Z,15.80
2022-09-04T02:55:53.717Z,15.70
2022-09-04T03:01:06.361Z,15.70
2022-09-04T03:06:13.522Z,15.70
2022-09-04T03:11:20.401Z,15.60
2022-09-04T03:16:30.448Z,15.60
2022-09-04T03:21:40.638Z,15.60
2022-09-04T03:26:48.211Z,15.50
2022-09-04T03:32:04.335Z,15.50
2022-09-04T03:37:31.685Z,15.50
2022-09-04T03:42:47.130Z,15.50
2022-09-04T03:48:10.211Z,15.50
2022-09-04T03:53:23.214Z,15.40
2022-09-04T03:58:38.245Z,15.40
2022-09-04T04:03:56.879Z,15.40
2022-09-04T04:09:36.915Z,15.30
2022-09-04T04:14:57.144Z,15.30
2022-09-04T04:20:11.908Z,15.20
2022-09-04T04:25:52.288Z,15.20
2022-09-04T04:31:05.688Z,15.10
2022-09-04T04:36:19.984Z,15.10
2022-09-04T04:42:02.597Z,15.10
2022-09-04T04:47:15.721Z,15.10
2022-09-04T04:52:35.896Z,15.20
2022-09-04T04:57:54.378Z,15.20
2022-09-04T05:03:09.146Z,15.10
2022-09-04T05:08:25.513Z,15.00
2022-09-04T05:13:40.410Z,15.10
2022-09-04T05:18:50.857Z,15.20
2022-09-04T05:24:03.467Z,15.30
2022-09-04T05:29:14.453Z,15.40
2022-09-04T05:34:27.099Z,15.50
2022-09-04T05:39:39.204Z,15.60
2022-09-04T05:44:55.681Z,15.70
2022-09-04T05:50:34.122Z,15.80
2022-09-04T05:56:07.645Z,15.90
2022-09-04T06:01:23.719Z,16.00
2022-09-04T06:06:37.687Z,16.00
2022-09-04T06:12:05.031Z,16.10
2022-09-04T06:17:22.642Z,16.20
2022-09-04T06:22:54.982Z,16.30
2022-09-04T06:28:18.837Z,16.40
2022-09-04T06:33:40.439Z,16.30
2022-09-04T06:38:56.813Z,16.30
2022-09-04T06:44:10.761Z,16.30
2022-09-04T06:49:19.079Z,16.30
2022-09-04T06:54:37.839Z,16.40
2022-09-04T07:00:11.729Z,16.60
2022-09-04T07:05:23.311Z,16.60
2022-09-04T07:10:32.819Z,16.70
2022-09-04T07:16:02.386Z,16.80
2022-09-04T07:21:17.426Z,16.70
2022-09-04T07:26:28.371Z,16.80
2022-09-04T07:31:39.803Z,16.90
2022-09-04T07:36:51.300Z,16.90
2022-09-04T07:42:02.519Z,17.00
2022-09-04T07:47:14.361Z,17.10
2022-09-04T07:52:29.781Z,17.20
2022-09-04T07:58:07.886Z,17.20
2022-09-04T08:03:30.229Z,17.30
2022-09-04T08:09:20.057Z,17.40
2022-09-04T08:14:53.174Z,17.60
2022-09-04T08:20:05.934Z,17.70
2022-09-04T08:25:21.098Z,17.80
2022-09-04T08:30:24.424Z,17.90
2022-09-04T08:35:34.841Z,18.00
2022-09-04T08:41:22.493Z,18.10
2022-09-04T08:46:49.390Z,18.20
2022-09-04T08:52:27.274Z,18.30
2022-09-04T08:57:58.549Z,18.40
2022-09-04T09:03:37.851Z,18.60
2022-09-04T09:09:23.429Z,18.70
2022-09-04T09:15:04.624Z,18.90
2022-09-04T09:20:26.741Z,19.00
2022-09-04T09:25:44.241Z,19.20
2022-09-04T09:31:12.300Z,19.30
2022-09-04T09:36:48.515Z,19.40
2022-09-04T09:42:17.200Z,19.60
2022-09-04T09:47:46.693Z,19.80
2022-09-04T09:53:25.376Z,19.90
2022-09-04T09:58:50.319Z,20.00
2022-09-04T10:04:28.691Z,20.20
2022-09-04T10:09:48.938Z,20.30
2022-09-04T10:15:55.376Z,20.50
2022-09-04T10:21:27.879Z,20.70
2022-09-04T10:26:56.583Z,20.80
2022-09-04T10:32:20.003Z,20.90
2022-09-04T10:37:38.809Z,21.20
2022-09-04T10:42:53.248Z,21.40
2022-09-04T10:48:20.097Z,21.50
2022-09-04T10:53:48.016Z,21.70
2022-09-04T10:59:21.254Z,21.90
2022-09-04T11:05:09.929Z,22.00
2022-09-04T11:10:38.146Z,22.10
2022-09-04T11:16:09.482Z,22.30
2022-09-04T11:22:08.750Z,22.40
2022-09-04T11:27:54.958Z,22.60
2022-09-04T11:33:30.331Z,22.80
2022-09-04T11:38:57.634Z,23.00
2022-09-04T11:44:33.123Z,23.20
2022-09-04T11:49:52.917Z,23.30
2022-09-04T11:55:42.207Z,23.50
2022-09-04T12:00:59.344Z,23.70
2022-09-04T12:06:18.739Z,23.80
2022-09-04T12:12:11.123Z,24.00
2022-09-04T12:17:48.378Z,24.10
2022-09-04T12:23:31.510Z,24.40
2022-09-04T12:29:07.497Z,24.50
2022-09-04T12:34:49.483Z,24.70
2022-09-04T12:40:29.299Z,24.90
2022-09-04T12:45:42.493Z,25.10
2022-09-04T12:50:54.679Z,25.20
2022-09-04T12:56:05.806Z,25.30
2022-09-04T13:01:15.372Z,25.50
2022-09-04T13:06:30.625Z,25.60
2022-09-04T13:11:43.513Z,25.80
2022-09-04T13:16:55.062Z,25.90
2022-09-04T13:22:15.813Z,26.10
2022-09-04T13:27:34.239Z,26.20
2022-09-04T13:32:51.616Z,26.20
2022-09-04T13:38:24.304Z,26.20
2022-09-04T13:43:46.614Z,26.20
2022-09-04T13:48:55.262Z,26.10
2022-09-04T13:54:07.726Z,25.90
2022-09-04T13:59:16.365Z,25.70
2022-09-04T14:04:26.440Z,25.70
2022-09-04T14:09:37.425Z,25.70
2022-09-04T14:15:13.662Z,25.70
2022-09-04T14:20:22.724Z,25.80
2022-09-04T14:25:34.449Z,26.10
2022-09-04T14:30:45.707Z,26.30
2022-09-04T14:36:03.166Z,26.60
2022-09-04T14:41:18.367Z,26.90
2022-09-04T14:46:31.274Z,27.10
2022-09-04T14:51:38.525Z,27.40
2022-09-04T14:56:48.044Z,27.90
2022-09-04T15:02:18.332Z,28.60
2022-09-04T15:07:32.737Z,28.90
2022-09-04T15:12:41.515Z,29.00
2022-09-04T15:17:51.545Z,29.60
2022-09-04T15:22:58.318Z,30.20
2022-09-04T15:28:07.037Z,30.70
2022-09-04T15:33:12.969Z,31.20
2022-09-04T15:38:20.684Z,31.50
2022-09-04T15:43:29.638Z,31.80
2022-09-04T15:48:47.464Z,31.70
2022-09-04T15:54:13.261Z,31.50
2022-09-04T15:59:21.233Z,31.00
2022-09-04T16:04:30.469Z,30.60
2022-09-04T16:09:39.974Z,30.30
2022-09-04T16:14:49.413Z,30.40
2022-09-04T16:19:59.387Z,30.50
2022-09-04T16:25:11.848Z,30.70
2022-09-04T16:30:33.058Z,30.60
2022-09-04T16:35:42.516Z,30.50
2022-09-04T16:40:55.952Z,30.50
2022-09-04T16:46:12.699Z,30.50
2022-09-04T16:51:39.224Z,30.20
2022-09-04T16:56:50.185Z,29.90
2022-09-04T17:02:01.655Z,29.50
2022-09-04T17:07:15.796Z,29.10
2022-09-04T17:12:43.217Z,28.70
2022-09-04T17:17:48.483Z,28.30
2022-09-04T17:29:04.760Z,27.90
2022-09-04T17:29:14.172Z,27.60
2022-09-04T17:40:08.926Z,27.20
2022-09-04T17:40:48.031Z,26.70
2022-09-04T17:45:11.590Z,26.30
2022-09-04T17:50:19.181Z,26.00
2022-09-04T17:55:23.225Z,25.60
2022-09-04T18:00:32.855Z,25.30
2022-09-04T18:05:53.361Z,25.10
2022-09-04T18:11:03.004Z,24.90
2022-09-04T18:16:15.211Z,24.60
2022-09-04T18:21:24.703Z,24.40
2022-09-04T18:26:41.191Z,24.20
2022-09-04T18:37:10.952Z,24.10
2022-09-04T18:37:44.626Z,24.00
2022-09-04T18:50:29.962Z,23.90
2022-09-04T18:50:46.485Z,23.70
2022-09-04T18:53:50.892Z,23.60
2022-09-04T18:59:00.460Z,23.40
2022-09-04T19:04:32.129Z,23.30
2022-09-04T19:09:56.477Z,23.20
2022-09-04T19:15:01.152Z,23.10
2022-09-04T19:20:10.579Z,22.90
2022-09-04T19:25:20.814Z,22.90
2022-09-04T19:30:27.465Z,22.70
2022-09-04T19:35:38.342Z,22.60
2022-09-04T19:46:06.405Z,22.50
2022-09-04T19:46:37.163Z,22.40
2022-09-04T19:53:30.487Z,22.20
2022-09-04T19:57:32.325Z,22.00
2022-09-04T20:02:48.011Z,21.90
2022-09-04T20:07:56.886Z,21.80
2022-09-04T20:13:16.741Z,21.70
2022-09-04T20:18:24.257Z,21.60
2022-09-04T20:23:34.892Z,21.60
2022-09-04T20:28:54.178Z,21.40
2022-09-04T20:34:03.505Z,21.30
2022-09-04T20:39:19.527Z,21.30
2022-09-04T20:44:31.872Z,21.20
2022-09-04T20:52:51.289Z,21.10
2022-09-04T20:55:24.977Z,21.00
2022-09-04T21:03:14.705Z,20.80
2022-09-04T21:06:27.171Z,20.50
2022-09-04T21:11:41.704Z,20.20
2022-09-04T21:17:35.026Z,19.90
2022-09-04T21:22:54.207Z,19.80
2022-09-04T21:28:39.167Z,19.70
2022-09-04T21:33:56.610Z,19.60
2022-09-04T21:39:32.974Z,19.40
2022-09-04T21:45:02.048Z,19.40
2022-09-04T21:50:35.295Z,19.40
2022-09-04T22:02:30.592Z,19.30
2022-09-04T22:02:45.890Z,19.20
2022-09-04T22:12:16.914Z,19.20
2022-09-04T22:13:38.392Z,19.10
2022-09-04T22:18:43.129Z,19.10
2022-09-04T22:24:32.239Z,19.10
2022-09-04T22:29:51.440Z,19.00
2022-09-04T22:35:35.918Z,19.00
2022-09-04T22:40:57.039Z,19.00
2022-09-04T22:46:27.252Z,19.00
2022-09-04T22:51:49.236Z,19.10
2022-09-04T22:56:56.258Z,19.00
2022-09-04T23:02:39.912Z,19.10
2022-09-04T23:13:42.211Z,19.00
2022-09-04T23:14:06.555Z,19.00
2022-09-04T23:23:35.022Z,19.00
2022-09-04T23:26:50.363Z,18.90
2022-09-04T23:30:49.626Z,18.80
2022-09-04T23:36:09.282Z,18.80
2022-09-04T23:41:53.345Z,18.80
2022-09-04T23:47:47.808Z,18.70
2022-09-04T23:53:25.981Z,18.60
2022-09-04T23:59:21.173Z,18.60
